NOTICIAS

19/04/2017Fenómeno: persistencia de precipitaciones Se informa a la población sobre fenómenos meteorológicos a tener en cuenta en las próximas horas. Este aviso no representa un cambio del nivel de riesgo meteorológico.Se comunica que las precipitaciones que comenzaron en el norte del país en el día de ayer, martes 18 de abril, continuarán durante la jornada de hoy en el resto del territorio nacional y durante el jueves 20, principalmente en la región sur del país. Se prevé que en el día de mañana, las condiciones mejoren paulatinamente.Los acumulados más importantes de precipitaciones se registrarán en los departamentos del noreste del país, comprendiendo en particular, aquellos afectados por las intensas precipitaciones ocurridas entre el sábado 8 y el lunes 10.Continuaremos monitoreando la situación e informaremos ante eventuales cambios.

Productos aeronáuticos

  • SIGMET
  • METAR / SPECI
  • TAF
  • AIREP
  • Aviso de aeródromo
  • Pronárea
  • Carta superficie

Mensajes METAR de la última hora

SUAA 241300Z 06014KT CAVOK 17/09 Q1016
SUCA 241300Z 04006KT CAVOK 18/12 Q1013
SUDU 241300Z 06010KT CAVOK 19/12 Q1015
SULS 241300Z 04012KT CAVOK 18/11 Q1018
SUMU 241300Z 05008KT CAVOK 17/10 Q1017 TEMPO 8000 RA
SUSO 241300Z 07010KT CAVOK 21/14 Q1013

Mensajes METAR de la última hora - Internacionales


Argentina
SAAR 241300Z 05002KT CAVOK 18/15 Q1013
SABE 241300Z 05008KT CAVOK 19/12 Q1015
SACO 241300Z 16003KT 9999 FEW025 17/13 Q1015
SAEZ 241300Z 05008KT CAVOK 20/13 Q1014
SAME 241300Z 16004KT 9999 OVC030 14/12 Q1015
Bolivia
SLCP 241300Z 33004KT 9999 SCT008 BKN200 23/22 Q1016
SLLP 241300Z 24004KT 9999 FEW006 BKN070 08/02 Q1038
Brasil
SBBR 241300Z 05009KT 9999 FEW040 BKN090 25/17 Q1021
SBFI 241300Z 05005KT CAVOK 23/19 Q1017
SBFL 241300Z 34005KT 9999 BKN024 SCT040 21/16 Q1020
SBGR 241300Z 06013KT CAVOK 20/15 Q1023
SBPA 241300Z 08004KT CAVOK 19/16 Q1018
SBRJ 241300Z 35002KT 9999 FEW025 BKN100 24/19 Q1021
SBSP 241300Z 08009KT CAVOK 20/12 Q1023
Colombia
SKBO 241300Z 05005KT 9999 FEW020 SCT080 BKN200 13/10 A3037
Chile
SCCI 241300Z 06015KT 9999 -RA SCT008 BKN015 OVC035 08/07 Q0997 NOSIG
SCEL 241300Z VRB02KT 8000 NSC 10/03 Q1017 NOSIG
Ecuador
SEQM 241300Z 32004KT 9999 FEW030 BKN100 14/10 Q1026 NOSIG RMK A3032
EEUU
KMIA 241253Z 28003KT 7SM SCT004 23/21 A2979 RMK AO2 SLP088 T02330211
KDCA 241252Z AUTO 04013KT 7SM -RA FEW038 OVC050 12/09 A3010 RMK AO2 RAB20 SLP192 P0001 T01170094
KIAD 241252Z 04009KT 10SM FEW045 OVC065 12/09 A3009 RMK AO2 RAB33E43 SLP189 P0000 T01170089
KJFK 241251Z 11006KT 10SM BKN150 BKN250 11/08 A3019 RMK AO2 SLP222 T01060078
KLGA 241251Z VRB04KT 10SM BKN170 BKN250 12/07 A3017 RMK AO2 SLP216 T01170067 $
KMIA 241247Z 27003KT 7SM SCT004 23/21 A2979 RMK AO2
KMIA 241232Z 32004KT 4SM BR BKN004 23/21 A2979 RMK AO2 T02280211
España
LEBL 241300Z 19010KT 140V220 CAVOK 18/13 Q1017 NOSIG
LEMD 241300Z 18005KT 130V240 CAVOK 26/05 Q1014 NOSIG
LEBL 241230Z 20011KT 160V220 CAVOK 17/12 Q1017 NOSIG
LEMD 241230Z 20004KT CAVOK 25/04 Q1014 NOSIG
Francia
LFPO 241300Z VRB04KT CAVOK 17/00 Q1015 NOSIG
LFPO 241230Z 34004KT 260V060 CAVOK 16/M00 Q1016 NOSIG
Inglaterra
EGLL 241320Z AUTO 28008KT 9999 BKN041 12/08 Q1014
EGLL 241250Z AUTO 27009KT 9999 NCD 13/09 Q1015
Panamá
MPTO 241300Z 30005KT 9000 FEW020 28/25 Q1011 NOSIG
Paraguay
SGAS 241300Z 04009KT CAVOK 24/19 Q1013
SGAS 241230Z 05007KT 9999 FEW033 BKN080 24/19 Q1013

* Datos extraidos del Text DataServer de la NOAA (NOAA TEXT DATA SERVER)

Instituto Uruguayo de Meteorología

Dr. Javier Barrios Amorín 1488 - CP 11200
Mesa Central (598) 1895

Montevideo - Uruguay